Aviation Digital Data Service (ADDS)

Output produced by METARs form (1031 UTC 28 July 2016)
found at http://aviationweather.gov/adds/metars/
 
KILM 280520Z 2806/2906 24007KT P6SM SKC 
     FM281700 23010G16KT P6SM SKC 
     FM282200 22011KT P6SM SKC 
     FM290000 21009KT P6SM SKC